Time;durP1;ratioP1;P1;durP2;ratioP2;P2;SDS_P1;SDS_P2;PMS_P1;PMS_P2;Temp;Humidity;BMP_temperature;BMP_pressure;BME280_temperature;BME280_humidity;BME280_pressure;Samples;Min_cycle;Max_cycle;Signal;HPM_P1;HPM_P2
2023/12/24 00:04:05;;;;;;;0.28;0.28;;;;;;;9.16;61.01;99355.31;10515007;28;20058;-65
2023/12/24 00:09:07;;;;;;;0.68;0.40;;;;;;;9.17;60.86;99352.66;10516512;28;20288;-64
2023/12/24 00:14:09;;;;;;;0.40;0.40;;;;;;;9.23;60.82;99352.25;10498967;28;20664;-64
2023/12/24 00:19:11;;;;;;;0.35;0.35;;;;;;;9.33;60.81;99352.50;10517301;28;20524;-65
2023/12/24 00:24:13;;;;;;;0.30;0.22;;;;;;;9.15;60.91;99345.84;10516705;28;20123;-66
2023/12/24 00:29:15;;;;;;;0.55;0.43;;;;;;;9.26;60.84;99361.66;10517351;28;20270;-66
2023/12/24 00:34:17;;;;;;;0.20;0.20;;;;;;;9.25;60.97;99360.81;10515785;28;20054;-65
2023/12/24 00:39:19;;;;;;;0.30;0.30;;;;;;;9.42;60.89;99349.31;10499161;28;20044;-65
2023/12/24 00:44:21;;;;;;;0.22;0.22;;;;;;;9.34;61.04;99348.97;10515830;28;20040;-66
2023/12/24 00:49:25;;;;;;;0.30;0.30;;;;;;;9.36;61.00;99355.75;10498633;28;20267;-65
2023/12/24 00:54:30;;;;;;;1.63;0.43;;;;;;;9.46;61.01;99354.22;10514506;28;20048;-66
2023/12/24 00:59:32;;;;;;;0.28;0.28;;;;;;;9.45;61.04;99352.56;10515300;28;20491;-65
2023/12/24 01:04:34;;;;;;;0.47;0.47;;;;;;;9.51;60.78;99352.16;10515544;28;20044;-66
2023/12/24 01:09:37;;;;;;;0.20;0.20;;;;;;;9.48;60.86;99356.75;10516183;28;20411;-66
2023/12/24 01:14:39;;;;;;;1.45;0.57;;;;;;;9.40;61.13;99353.78;10479965;28;20052;-66
2023/12/24 01:19:41;;;;;;;0.52;0.50;;;;;;;9.52;60.97;99351.22;10496689;28;20483;-66
2023/12/24 01:24:43;;;;;;;0.10;0.10;;;;;;;9.42;60.75;99357.16;10492130;28;20569;-66
2023/12/24 01:29:45;;;;;;;0.68;0.40;;;;;;;9.51;60.79;99357.38;10497871;28;20040;-66
2023/12/24 01:34:47;;;;;;;0.57;0.57;;;;;;;9.46;60.72;99363.84;10513763;28;20495;-66
2023/12/24 01:39:51;;;;;;;0.35;0.35;;;;;;;9.37;60.79;99349.59;10497541;28;20415;-66
2023/12/24 01:44:53;;;;;;;0.20;0.20;;;;;;;9.39;60.72;99352.09;10515222;28;20929;-66
2023/12/24 01:49:55;;;;;;;0.10;0.10;;;;;;;9.40;60.82;99346.78;10497493;28;20135;-66
2023/12/24 01:54:57;;;;;;;0.30;0.30;;;;;;;9.70;60.36;99345.78;10496911;28;20047;-66
2023/12/24 02:00:00;;;;;;;0.28;0.28;;;;;;;9.54;60.07;99349.34;10514999;28;20117;-66
2023/12/24 02:05:03;;;;;;;0.45;0.30;;;;;;;9.62;60.42;99356.69;10481646;28;20063;-66
2023/12/24 02:10:07;;;;;;;1.27;0.40;;;;;;;9.53;60.88;99367.72;10495766;28;20071;-66
2023/12/24 02:15:09;;;;;;;0.63;0.45;;;;;;;9.40;61.80;99354.59;10514253;28;20056;-66
2023/12/24 02:20:11;;;;;;;0.40;0.40;;;;;;;9.37;62.07;99348.75;10513088;28;20039;-66
2023/12/24 02:25:13;;;;;;;0.30;0.30;;;;;;;9.34;62.28;99355.00;10513094;28;20068;-66
2023/12/24 02:30:20;;;;;;;0.38;0.38;;;;;;;9.28;62.55;99357.19;10495709;28;20381;-66
2023/12/24 02:35:27;;;;;;;1.70;0.30;;;;;;;9.35;62.47;99359.31;10501918;28;20478;-65
2023/12/24 02:40:29;;;;;;;0.45;0.38;;;;;;;9.44;61.91;99345.66;10521409;28;20285;-65
2023/12/24 02:45:31;;;;;;;2.25;0.50;;;;;;;9.47;61.62;99334.19;10521557;28;20043;-65
2023/12/24 02:50:33;;;;;;;1.25;0.63;;;;;;;9.43;61.36;99317.88;10503249;28;20040;-65
2023/12/24 02:55:35;;;;;;;0.32;0.25;;;;;;;9.38;61.56;99299.06;10518741;28;20040;-65
2023/12/24 03:00:37;;;;;;;0.50;0.50;;;;;;;9.43;61.06;99273.53;10520101;28;20430;-65
2023/12/24 03:05:39;;;;;;;0.47;0.30;;;;;;;9.41;60.39;99266.72;10501995;28;20070;-65
2023/12/24 03:10:41;;;;;;;0.70;0.43;;;;;;;9.40;60.50;99245.00;10502220;28;20059;-65
2023/12/24 03:15:43;;;;;;;0.45;0.40;;;;;;;9.38;59.66;99233.81;10483151;28;20518;-65
2023/12/24 03:20:45;;;;;;;0.55;0.35;;;;;;;9.55;60.10;99224.88;10501771;28;20047;-67
2023/12/24 03:25:47;;;;;;;1.98;0.57;;;;;;;9.56;59.71;99211.72;10501819;28;20047;-67
2023/12/24 03:30:49;;;;;;;2.85;0.63;;;;;;;9.61;59.60;99214.88;10500310;28;20510;-66
2023/12/24 03:35:51;;;;;;;1.23;0.50;;;;;;;9.57;59.64;99213.41;10518860;28;20470;-66
2023/12/24 03:40:53;;;;;;;0.38;0.38;;;;;;;9.58;59.46;99201.19;10500506;28;20055;-66
2023/12/24 03:45:55;;;;;;;0.60;0.60;;;;;;;9.49;59.44;99194.81;10498087;28;20500;-67
2023/12/24 03:50:58;;;;;;;0.40;0.40;;;;;;;9.44;59.54;99188.25;10518199;28;20155;-66
2023/12/24 03:56:01;;;;;;;0.75;0.50;;;;;;;9.45;59.47;99179.47;10500298;28;20316;-66
2023/12/24 04:01:09;;;;;;;1.48;0.70;;;;;;;9.42;59.64;99197.94;10518111;28;20469;-66
2023/12/24 04:06:15;;;;;;;0.70;0.70;;;;;;;9.45;59.70;99174.25;10499833;28;20047;-66
2023/12/24 04:11:17;;;;;;;3.67;0.85;;;;;;;9.29;60.70;99150.94;10500454;28;20078;-66
2023/12/24 04:16:21;;;;;;;0.43;0.43;;;;;;;9.21;61.55;99165.44;10500055;28;20052;-66
2023/12/24 04:21:23;;;;;;;1.52;0.60;;;;;;;9.11;62.06;99165.22;10495300;28;20577;-66
2023/12/24 04:26:25;;;;;;;0.45;0.45;;;;;;;9.13;62.21;99160.72;10517164;28;20050;-66
2023/12/24 04:31:27;;;;;;;2.72;0.45;;;;;;;9.07;62.78;99162.91;10515979;28;20075;-66
2023/12/24 04:36:29;;;;;;;0.45;0.43;;;;;;;8.95;63.50;99174.13;10516297;28;20051;-66
2023/12/24 04:41:31;;;;;;;0.43;0.43;;;;;;;9.01;63.56;99169.38;10498890;28;20040;-66
2023/12/24 04:46:43;;;;;;;0.25;0.25;;;;;;;8.96;64.77;99191.44;10497927;28;20408;-66
2023/12/24 04:51:45;;;;;;;0.30;0.30;;;;;;;8.82;65.13;99190.56;10515916;28;20048;-66
2023/12/24 04:56:49;;;;;;;0.25;0.25;;;;;;;8.73;65.99;99182.50;10497549;28;20141;-66
2023/12/24 05:01:51;;;;;;;0.10;0.10;;;;;;;8.77;66.02;99190.03;10481318;28;20044;-66
2023/12/24 05:06:53;;;;;;;0.30;0.30;;;;;;;8.72;66.13;99186.88;10480958;28;20058;-66
2023/12/24 05:11:55;;;;;;;0.45;0.45;;;;;;;8.75;66.41;99183.25;10497868;28;20438;-66
2023/12/24 05:16:57;;;;;;;0.52;0.40;;;;;;;8.60;67.49;99179.84;10513433;28;20040;-66
2023/12/24 05:21:59;;;;;;;0.20;0.20;;;;;;;8.52;67.69;99176.06;10497699;28;20067;-65
2023/12/24 05:27:01;;;;;;;0.28;0.20;;;;;;;8.44;68.58;99171.34;10497191;28;20454;-66
2023/12/24 05:32:03;;;;;;;0.32;0.32;;;;;;;8.50;68.08;99173.56;10514860;28;20048;-66
2023/12/24 05:37:05;;;;;;;1.10;0.20;;;;;;;8.50;68.10;99189.19;10514767;28;20080;-66
2023/12/24 05:42:07;;;;;;;1.20;0.50;;;;;;;8.43;68.98;99198.31;10497794;28;20310;-65
2023/12/24 05:47:09;;;;;;;0.68;0.30;;;;;;;8.49;68.73;99186.66;10515109;28;20503;-65
2023/12/24 05:52:11;;;;;;;0.70;0.50;;;;;;;8.54;68.32;99184.59;10513242;28;20072;-65
2023/12/24 05:57:14;;;;;;;1.02;1.02;;;;;;;8.50;68.71;99183.97;10515043;28;20048;-65
2023/12/24 06:02:18;;;;;;;0.30;0.30;;;;;;;8.54;68.85;99168.97;10513071;28;20434;-67
2023/12/24 06:07:20;;;;;;;0.30;0.28;;;;;;;8.51;68.73;99163.94;10515539;28;20594;-65
2023/12/24 06:12:22;;;;;;;0.20;0.20;;;;;;;8.45;69.13;99159.97;10522371;28;20480;-66
2023/12/24 06:17:24;;;;;;;0.25;0.25;;;;;;;8.50;68.92;99165.72;10521375;28;20040;-66
2023/12/24 06:22:28;;;;;;;0.20;0.20;;;;;;;8.50;69.12;99175.31;10520600;28;20032;-65
2023/12/24 06:27:30;;;;;;;0.45;0.40;;;;;;;8.46;69.24;99168.63;10521615;28;20048;-66
2023/12/24 06:32:32;;;;;;;0.20;0.20;;;;;;;8.35;70.10;99164.09;10520801;28;20403;-66
2023/12/24 06:37:34;;;;;;;0.20;0.20;;;;;;;8.45;69.76;99165.19;10519104;28;20119;-65
2023/12/24 06:42:36;;;;;;;2.40;0.63;;;;;;;8.41;70.18;99150.66;10521338;28;20559;-65
2023/12/24 06:47:38;;;;;;;0.20;0.20;;;;;;;8.46;69.64;99166.88;10503447;28;20062;-66
2023/12/24 06:52:40;;;;;;;0.10;0.10;;;;;;;8.40;70.11;99161.19;10521028;28;20059;-65
2023/12/24 06:57:42;;;;;;;0.22;0.22;;;;;;;8.21;71.55;99160.66;10497911;28;20055;-66
2023/12/24 07:02:44;;;;;;;0.30;0.30;;;;;;;8.23;71.28;99169.22;10512242;28;20568;-66
2023/12/24 07:07:46;;;;;;;0.28;0.28;;;;;;;8.27;71.28;99160.28;10514925;28;20127;-68
2023/12/24 07:12:48;;;;;;;0.17;0.17;;;;;;;8.31;71.16;99160.00;10495006;28;20408;-69
2023/12/24 07:17:50;;;;;;;0.30;0.30;;;;;;;8.31;71.16;99167.81;10514543;28;20078;-68
2023/12/24 07:22:52;;;;;;;0.85;0.63;;;;;;;8.29;71.42;99161.88;10491827;28;20044;-68
2023/12/24 07:27:55;;;;;;;0.30;0.30;;;;;;;8.32;71.51;99169.50;10511355;28;20449;-68
2023/12/24 07:32:57;;;;;;;0.30;0.30;;;;;;;8.21;72.27;99166.72;10511460;28;20043;-67
2023/12/24 07:38:01;;;;;;;0.45;0.40;;;;;;;8.30;71.93;99165.31;10511299;28;20488;-68
2023/12/24 07:43:03;;;;;;;0.40;0.40;;;;;;;8.40;71.52;99162.03;10513159;28;20052;-68
2023/12/24 07:48:08;;;;;;;0.85;0.50;;;;;;;8.28;72.46;99165.38;10495273;28;20551;-68
2023/12/24 07:53:10;;;;;;;1.85;1.13;;;;;;;8.33;72.13;99175.53;10512749;28;20087;-68
2023/12/24 07:58:12;;;;;;;0.77;0.77;;;;;;;8.34;72.22;99161.59;10510441;28;20573;-66
2023/12/24 08:03:15;;;;;;;1.13;0.90;;;;;;;8.52;71.59;99179.50;10506090;28;20440;-67
2023/12/24 08:08:18;;;;;;;0.40;0.40;;;;;;;8.47;71.88;99175.50;10509943;28;20050;-67
2023/12/24 08:13:21;;;;;;;0.57;0.52;;;;;;;8.52;72.02;99163.03;10523620;27;20043;-67
2023/12/24 08:18:23;;;;;;;0.50;0.50;;;;;;;8.56;71.63;99160.13;10510087;28;20147;-67
2023/12/24 08:23:25;;;;;;;0.50;0.50;;;;;;;8.49;72.21;99155.38;10510442;28;20259;-67
2023/12/24 08:28:27;;;;;;;6.72;2.00;;;;;;;8.55;71.96;99162.81;10493082;28;20044;-68
2023/12/24 08:33:29;;;;;;;5.13;2.45;;;;;;;8.62;72.03;99161.50;10510331;28;20673;-67
2023/12/24 08:38:32;;;;;;;1.08;0.75;;;;;;;8.72;71.44;99159.97;10511197;28;20620;-67
2023/12/24 08:43:34;;;;;;;0.40;0.40;;;;;;;8.65;71.90;99159.53;10512272;28;20043;-73
2023/12/24 08:48:37;;;;;;;0.40;0.40;;;;;;;8.51;72.65;99153.53;10511150;28;20131;-74
2023/12/24 08:53:40;;;;;;;0.30;0.30;;;;;;;8.61;72.43;99172.84;10507605;28;20462;-73
2023/12/24 08:58:42;;;;;;;0.95;0.80;;;;;;;8.67;72.30;99159.41;10510614;28;20295;-74
2023/12/24 09:03:44;;;;;;;0.77;0.60;;;;;;;8.67;72.34;99170.69;10509596;28;20050;-74
2023/12/24 09:08:46;;;;;;;2.10;1.17;;;;;;;8.76;71.72;99154.47;10510269;28;20355;-74
2023/12/24 09:13:48;;;;;;;0.57;0.50;;;;;;;8.89;71.35;99169.31;10511974;28;20176;-74
2023/12/24 09:18:50;;;;;;;0.60;0.60;;;;;;;8.76;71.85;99177.94;10511855;28;20522;-73
2023/12/24 09:23:54;;;;;;;0.38;0.38;;;;;;;8.88;71.36;99170.25;10511391;28;20413;-73
2023/12/24 09:28:56;;;;;;;0.40;0.40;;;;;;;8.88;71.45;99171.09;10511070;28;20050;-73
2023/12/24 09:33:59;;;;;;;0.20;0.20;;;;;;;8.85;71.56;99179.94;10508154;28;20531;-73
2023/12/24 09:39:01;;;;;;;0.57;0.57;;;;;;;9.06;70.77;99177.72;10504258;28;20140;-73
2023/12/24 09:44:05;;;;;;;0.38;0.38;;;;;;;8.93;71.66;99186.44;10510434;28;20052;-73
2023/12/24 09:49:07;;;;;;;0.30;0.30;;;;;;;9.12;70.70;99185.13;10498196;28;20044;-72
2023/12/24 09:54:09;;;;;;;0.20;0.20;;;;;;;9.04;71.30;99190.00;10516479;28;20462;-73
2023/12/24 09:59:11;;;;;;;0.45;0.43;;;;;;;9.14;71.15;99183.25;10494945;28;20435;-73
2023/12/24 10:04:14;;;;;;;0.60;0.60;;;;;;;9.13;71.06;99194.66;10518043;28;20050;-74
2023/12/24 10:09:16;;;;;;;0.47;0.40;;;;;;;9.17;70.98;99177.84;10501727;28;20040;-74
2023/12/24 10:14:18;;;;;;;0.70;0.70;;;;;;;9.23;70.75;99174.00;10522544;28;20068;-73
2023/12/24 10:19:24;;;;;;;0.30;0.30;;;;;;;9.18;71.44;99174.28;10523558;28;20520;-71
2023/12/24 10:24:29;;;;;;;0.40;0.40;;;;;;;9.24;71.28;99170.47;10520197;28;20131;-73
2023/12/24 10:29:35;;;;;;;0.57;0.30;;;;;;;9.41;70.78;99160.56;10518067;28;20036;-73
2023/12/24 10:34:38;;;;;;;0.50;0.50;;;;;;;9.48;70.40;99161.00;10502897;28;20052;-74
2023/12/24 10:39:41;;;;;;;0.38;0.38;;;;;;;9.27;70.94;99154.59;10530915;28;20070;-74
2023/12/24 10:44:43;;;;;;;0.60;0.60;;;;;;;9.30;70.94;99163.03;10516540;28;20606;-75
2023/12/24 10:49:45;;;;;;;0.47;0.45;;;;;;;9.35;70.73;99153.16;10494863;28;20079;-73
2023/12/24 10:54:47;;;;;;;0.50;0.50;;;;;;;9.31;70.92;99159.50;10515389;28;20204;-75
2023/12/24 10:59:59;;;;;;;0.40;0.40;;;;;;;9.31;70.92;99140.41;10510631;28;20499;-72
2023/12/24 11:05:01;;;;;;;0.30;0.30;;;;;;;9.47;70.28;99133.22;10512420;28;20767;-76
2023/12/24 11:10:06;;;;;;;0.50;0.50;;;;;;;9.55;69.71;99118.72;10513309;28;20050;-75
2023/12/24 11:15:09;;;;;;;0.47;0.47;;;;;;;9.64;69.05;99125.91;10499060;28;20063;-72
2023/12/24 11:20:18;;;;;;;0.30;0.30;;;;;;;9.82;68.38;99130.81;10497607;28;20065;-73
2023/12/24 11:25:20;;;;;;;0.98;0.80;;;;;;;9.68;68.02;99133.56;10513110;28;20054;-73
2023/12/24 11:30:22;;;;;;;0.43;0.40;;;;;;;9.82;67.83;99102.94;10488542;28;20036;-74
2023/12/24 11:35:54;;;;;;;1.10;0.63;;;;;;;9.75;67.01;99083.41;10470449;28;1186798;-74
2023/12/24 11:41:12;;;;;;;0.32;0.32;;;;;;;9.86;67.23;99067.84;10492930;28;20059;-74
2023/12/24 11:46:14;;;;;;;0.60;0.60;;;;;;;9.79;66.87;99068.38;10514668;28;20124;-75
2023/12/24 11:51:23;;;;;;;0.45;0.45;;;;;;;9.95;66.79;99048.09;10513898;28;20135;-75
2023/12/24 11:56:27;;;;;;;0.38;0.38;;;;;;;9.96;66.89;99042.75;10514911;28;20043;-75
2023/12/24 12:01:31;;;;;;;0.47;0.45;;;;;;;10.10;66.51;99057.41;10513204;28;20051;-75
2023/12/24 12:06:34;;;;;;;0.30;0.30;;;;;;;10.09;66.18;99040.94;10511673;28;20521;-76
2023/12/24 12:11:37;;;;;;;0.60;0.50;;;;;;;10.03;65.71;99040.53;10513354;28;20040;-74
2023/12/24 12:16:39;;;;;;;0.30;0.30;;;;;;;9.99;65.65;99024.22;10513878;28;20068;-75
2023/12/24 12:21:43;;;;;;;0.20;0.20;;;;;;;10.10;65.26;99039.13;10512869;28;20635;-75
2023/12/24 12:26:48;;;;;;;0.20;0.20;;;;;;;10.06;65.68;99033.31;10481131;28;20040;-76
2023/12/24 12:31:57;;;;;;;0.40;0.40;;;;;;;10.15;65.38;99035.25;10492026;28;20165;-75
2023/12/24 12:37:00;;;;;;;0.32;0.32;;;;;;;10.10;65.69;99021.69;10512247;28;20048;-73
2023/12/24 12:42:04;;;;;;;0.20;0.20;;;;;;;10.18;64.98;99029.81;10506631;28;20436;-75
2023/12/24 12:47:09;;;;;;;0.98;0.63;;;;;;;10.22;65.29;99025.19;10525039;28;20531;-75
2023/12/24 12:52:11;;;;;;;0.47;0.40;;;;;;;10.14;65.41;99010.06;10494534;28;20035;-74
2023/12/24 12:57:34;;;;;;;2.80;1.00;;;;;;;10.07;65.21;99011.47;10488952;28;20048;-75
2023/12/24 13:02:38;;;;;;;1.88;1.30;;;;;;;10.20;65.57;99006.16;10512080;28;20689;-76
2023/12/24 13:07:41;;;;;;;2.35;1.20;;;;;;;10.33;65.26;98986.88;10508538;28;20051;-76
2023/12/24 13:12:42;;;;;;;1.33;0.90;;;;;;;10.23;65.11;98995.50;10506509;28;20044;-75
2023/12/24 13:17:46;;;;;;;2.83;1.20;;;;;;;10.30;65.52;99022.84;10508583;28;20415;-75
2023/12/24 13:22:48;;;;;;;0.73;0.70;;;;;;;10.15;65.71;99031.81;10510862;28;20090;-75
2023/12/24 13:27:50;;;;;;;0.60;0.60;;;;;;;10.22;65.90;99044.31;10508830;28;20381;-75
2023/12/24 13:32:52;;;;;;;0.40;0.40;;;;;;;9.99;67.10;99037.28;10510586;28;20122;-76
2023/12/24 13:37:55;;;;;;;0.30;0.30;;;;;;;9.98;67.55;99034.78;10510041;28;20043;-74
2023/12/24 13:42:57;;;;;;;0.30;0.30;;;;;;;10.06;67.19;99038.53;10511224;28;20642;-75
2023/12/24 13:48:03;;;;;;;0.32;0.32;;;;;;;9.75;68.91;99046.03;10510873;28;20044;-75
2023/12/24 13:53:06;;;;;;;0.65;0.65;;;;;;;9.71;69.05;99045.41;10510923;28;20040;-75
2023/12/24 13:58:28;;;;;;;0.38;0.38;;;;;;;9.49;70.41;99040.81;10505836;28;20044;-76
2023/12/24 14:03:30;;;;;;;0.43;0.30;;;;;;;9.64;69.66;99034.53;10493183;28;20522;-76
2023/12/24 14:08:33;;;;;;;1.13;0.40;;;;;;;9.58;69.75;99032.34;10507968;28;20044;-75
2023/12/24 14:13:35;;;;;;;0.40;0.40;;;;;;;9.56;69.62;99023.78;10510247;28;20044;-75
2023/12/24 14:18:37;;;;;;;0.25;0.25;;;;;;;9.60;69.52;99021.81;10509364;28;20080;-76
2023/12/24 14:23:40;;;;;;;0.50;0.50;;;;;;;9.66;69.57;99018.81;10492786;28;20655;-75
2023/12/24 14:28:42;;;;;;;0.60;0.60;;;;;;;9.60;69.79;99008.75;10511943;28;20036;-76
2023/12/24 14:33:44;;;;;;;0.55;0.52;;;;;;;9.59;69.81;99012.28;10499083;28;20134;-76
2023/12/24 14:38:47;;;;;;;0.50;0.50;;;;;;;9.54;69.99;99017.84;10517982;28;20052;-76
2023/12/24 14:43:49;;;;;;;1.27;0.88;;;;;;;9.59;69.81;98991.41;10516588;28;20479;-75
2023/12/24 14:48:51;;;;;;;1.25;0.80;;;;;;;9.60;69.72;98993.94;10499367;28;20048;-76
2023/12/24 14:53:54;;;;;;;1.08;0.80;;;;;;;9.70;69.40;99015.03;10512787;28;20322;-76
2023/12/24 14:58:56;;;;;;;1.45;0.90;;;;;;;9.71;69.16;99019.28;10513277;28;20050;-75
2023/12/24 15:03:58;;;;;;;3.83;1.50;;;;;;;9.88;68.71;99028.56;10516391;28;20066;-76
2023/12/24 15:09:03;;;;;;;1.58;0.95;;;;;;;9.73;69.14;99027.84;10493635;28;20052;-76
2023/12/24 15:14:06;;;;;;;0.50;0.40;;;;;;;9.72;69.07;99020.13;10498205;28;20052;-75
2023/12/24 15:19:08;;;;;;;0.32;0.32;;;;;;;9.91;68.42;99007.47;10516127;28;20036;-75
2023/12/24 15:24:11;;;;;;;0.60;0.60;;;;;;;9.84;68.63;99007.06;10513376;28;20048;-76
2023/12/24 15:29:13;;;;;;;0.95;0.63;;;;;;;9.88;68.42;99012.88;10514968;28;20120;-73
2023/12/24 15:34:15;;;;;;;0.70;0.60;;;;;;;9.95;67.81;99011.50;10513308;28;20417;-73
2023/12/24 15:39:17;;;;;;;0.75;0.55;;;;;;;10.07;67.75;99008.03;10512435;28;20055;-73
2023/12/24 15:44:20;;;;;;;0.50;0.50;;;;;;;10.03;67.67;99014.41;10509096;28;20284;-72
2023/12/24 15:49:22;;;;;;;0.52;0.40;;;;;;;10.04;67.67;98995.16;10508576;28;20120;-72
2023/12/24 15:54:24;;;;;;;0.50;0.40;;;;;;;10.02;67.38;98995.28;10508565;28;20044;-72
2023/12/24 15:59:26;;;;;;;1.48;0.60;;;;;;;10.14;67.58;98983.94;10514795;28;20054;-71
2023/12/24 16:04:28;;;;;;;0.98;0.70;;;;;;;10.07;67.39;98992.34;10495656;28;20139;-73
2023/12/24 16:09:30;;;;;;;0.47;0.47;;;;;;;10.02;67.60;98999.66;10511563;28;20085;-66
2023/12/24 16:14:36;;;;;;;0.60;0.60;;;;;;;10.11;67.25;98985.94;10513356;28;20044;-65
2023/12/24 16:19:38;;;;;;;0.32;0.32;;;;;;;10.18;67.16;98987.16;10494266;28;20123;-65
2023/12/24 16:24:40;;;;;;;0.45;0.45;;;;;;;10.04;67.59;98989.94;10508345;28;20039;-65
2023/12/24 16:29:42;;;;;;;0.68;0.68;;;;;;;10.09;67.25;99006.13;10512962;28;20062;-65
2023/12/24 16:34:44;;;;;;;0.40;0.40;;;;;;;10.22;66.87;99006.88;10512210;28;20048;-65
2023/12/24 16:39:46;;;;;;;0.65;0.40;;;;;;;10.25;66.98;98996.22;10497306;28;20043;-64
2023/12/24 16:44:48;;;;;;;0.50;0.50;;;;;;;10.28;66.76;99015.13;10488957;28;20054;-67
2023/12/24 16:49:50;;;;;;;0.55;0.55;;;;;;;10.33;66.79;99014.78;10515429;28;20553;-66
2023/12/24 16:54:52;;;;;;;1.13;0.90;;;;;;;10.30;66.72;99017.63;10516630;28;20040;-66
2023/12/24 16:59:54;;;;;;;0.30;0.30;;;;;;;10.16;66.78;99012.56;10516659;28;20044;-67
2023/12/24 17:04:56;;;;;;;0.50;0.50;;;;;;;10.33;66.68;99012.19;10480621;28;20059;-67
2023/12/24 17:10:04;;;;;;;1.00;0.50;;;;;;;10.32;66.40;99010.50;10514228;28;20044;-67
2023/12/24 17:15:07;;;;;;;0.38;0.38;;;;;;;10.46;66.33;98999.88;10516232;28;20071;-66
2023/12/24 17:20:10;;;;;;;0.70;0.60;;;;;;;10.46;66.16;99002.50;10515803;28;20036;-67
2023/12/24 17:25:12;;;;;;;0.40;0.40;;;;;;;10.39;66.13;98996.88;10515459;28;20488;-68
2023/12/24 17:30:16;;;;;;;0.60;0.52;;;;;;;10.48;66.00;98995.38;10515359;28;20060;-67
2023/12/24 17:35:18;;;;;;;2.03;0.52;;;;;;;10.52;66.05;99009.91;10515216;28;20063;-68
2023/12/24 17:40:25;;;;;;;0.68;0.45;;;;;;;10.62;65.69;99013.50;10514913;28;20167;-67
2023/12/24 17:45:28;;;;;;;0.57;0.40;;;;;;;10.60;65.55;99006.69;10515434;28;20341;-67
2023/12/24 17:50:30;;;;;;;2.53;0.90;;;;;;;10.63;65.61;99004.69;10516124;28;20152;-67
2023/12/24 17:55:32;;;;;;;1.52;1.00;;;;;;;10.52;65.50;99006.44;10514373;28;20051;-67
2023/12/24 18:00:34;;;;;;;3.60;1.15;;;;;;;10.52;65.57;99038.66;10515806;28;20051;-66
2023/12/24 18:05:36;;;;;;;0.63;0.63;;;;;;;10.54;65.63;99022.84;10520269;28;20047;-68
2023/12/24 18:10:38;;;;;;;0.38;0.38;;;;;;;10.67;65.06;99019.19;10504464;28;20039;-66
2023/12/24 18:15:41;;;;;;;1.13;0.35;;;;;;;10.63;64.99;99003.84;10505311;28;20133;-66
2023/12/24 18:20:43;;;;;;;1.90;0.65;;;;;;;10.73;64.80;98999.59;10504155;28;20052;-66
2023/12/24 18:25:45;;;;;;;1.85;0.85;;;;;;;10.52;64.91;98981.94;10520686;28;20409;-66
2023/12/24 18:30:48;;;;;;;0.47;0.40;;;;;;;10.60;64.67;98991.00;10522120;28;20113;-67
2023/12/24 18:35:51;;;;;;;0.65;0.65;;;;;;;10.64;64.67;98980.22;10520738;28;20523;-67
2023/12/24 18:40:54;;;;;;;1.70;0.60;;;;;;;10.71;64.57;98981.41;10521284;28;20032;-67
2023/12/24 18:45:59;;;;;;;1.27;0.82;;;;;;;10.55;64.14;98991.34;10504470;28;20055;-67
2023/12/24 18:51:03;;;;;;;0.57;0.57;;;;;;;10.64;64.20;99001.13;10503354;28;20032;-67
2023/12/24 18:56:07;;;;;;;0.68;0.68;;;;;;;10.55;64.24;99019.25;10520697;28;20040;-67
2023/12/24 19:01:09;;;;;;;3.53;0.90;;;;;;;10.49;63.64;99025.78;10520580;28;20072;-66
2023/12/24 19:06:26;;;;;;;1.00;0.85;;;;;;;10.68;63.73;99038.34;10520848;28;20067;-66
2023/12/24 19:11:28;;;;;;;0.82;0.75;;;;;;;10.66;63.46;99027.16;10518398;28;20097;-66
2023/12/24 19:16:31;;;;;;;5.47;1.23;;;;;;;10.60;64.30;99041.53;10520722;28;20044;-67
2023/12/24 19:21:33;;;;;;;2.00;0.98;;;;;;;10.46;65.11;99063.44;10501244;28;20448;-67
2023/12/24 19:26:35;;;;;;;2.25;1.48;;;;;;;10.47;64.94;99077.34;10519642;28;20068;-67
2023/12/24 19:31:37;;;;;;;2.50;0.90;;;;;;;10.38;65.55;99081.47;10519553;28;20047;-66
2023/12/24 19:36:39;;;;;;;4.95;1.45;;;;;;;10.24;66.52;99088.63;10519844;28;20058;-66
2023/12/24 19:41:41;;;;;;;1.83;1.13;;;;;;;10.13;67.02;99091.19;10519593;28;20044;-65
2023/12/24 19:46:43;;;;;;;4.07;1.13;;;;;;;9.98;67.76;99071.34;10519477;28;20048;-65
2023/12/24 19:51:45;;;;;;;4.18;0.85;;;;;;;10.01;67.76;99099.88;10518050;28;20050;-66
2023/12/24 19:56:47;;;;;;;1.10;0.77;;;;;;;9.94;68.01;99088.19;10517859;28;20047;-66
2023/12/24 20:01:53;;;;;;;3.17;1.65;;;;;;;9.77;69.08;99101.59;10515996;28;20044;-65
2023/12/24 20:06:55;;;;;;;0.68;0.68;;;;;;;9.89;68.09;99098.94;10518061;28;20044;-66
2023/12/24 20:11:57;;;;;;;2.78;1.05;;;;;;;9.86;67.69;99100.94;10512961;28;20052;-66
2023/12/24 20:16:59;;;;;;;6.25;1.10;;;;;;;10.03;67.23;99087.56;10495280;28;20039;-66
2023/12/24 20:22:01;;;;;;;1.75;0.73;;;;;;;10.08;66.79;99101.09;10511129;28;20412;-65
2023/12/24 20:27:04;;;;;;;1.38;0.80;;;;;;;10.16;66.62;99093.56;10507212;28;20040;-66
2023/12/24 20:32:06;;;;;;;1.15;0.70;;;;;;;10.13;66.65;99115.53;10472771;28;20059;-66
2023/12/24 20:37:08;;;;;;;1.02;0.80;;;;;;;9.94;67.50;99112.53;10509456;28;20068;-66
2023/12/24 20:42:10;;;;;;;2.72;0.70;;;;;;;9.91;67.74;99101.47;10511479;28;20615;-66
2023/12/24 20:47:13;;;;;;;0.90;0.80;;;;;;;9.77;68.09;99117.28;10511507;28;20052;-66
2023/12/24 20:52:15;;;;;;;1.98;0.88;;;;;;;9.82;67.70;99130.81;10494013;28;20042;-66
2023/12/24 20:57:17;;;;;;;1.05;0.95;;;;;;;9.79;67.56;99104.94;10512159;28;20066;-66
2023/12/24 21:02:20;;;;;;;1.70;0.77;;;;;;;9.94;67.22;99102.09;10526457;28;20032;-66
2023/12/24 21:07:22;;;;;;;1.58;0.80;;;;;;;9.98;66.94;99103.53;10509020;28;20416;-66
2023/12/24 21:12:24;;;;;;;1.75;0.77;;;;;;;9.81;67.81;99101.25;10489687;28;20040;-66
2023/12/24 21:17:27;;;;;;;3.08;1.38;;;;;;;9.78;68.02;99103.25;10483009;28;20047;-66
2023/12/24 21:22:29;;;;;;;0.52;0.50;;;;;;;9.54;69.09;99111.00;10508450;28;20036;-66
2023/12/24 21:27:32;;;;;;;0.68;0.68;;;;;;;9.68;68.36;99099.63;10508986;28;20048;-66
2023/12/24 21:32:34;;;;;;;0.82;0.52;;;;;;;9.82;67.64;99126.44;10489936;28;20411;-66
2023/12/24 21:37:36;;;;;;;1.05;0.95;;;;;;;9.77;66.94;99128.53;10498503;28;20509;-65
2023/12/24 21:42:39;;;;;;;1.23;0.80;;;;;;;9.98;66.16;99147.09;10499692;28;20511;-66
2023/12/24 21:47:41;;;;;;;2.17;0.85;;;;;;;10.17;65.77;99155.34;10519006;28;20892;-65
2023/12/24 21:52:44;;;;;;;0.60;0.60;;;;;;;10.08;65.75;99148.97;10522224;28;20098;-65
2023/12/24 21:57:46;;;;;;;1.90;0.80;;;;;;;10.11;65.79;99163.59;10520434;28;20058;-65
2023/12/24 22:02:48;;;;;;;0.98;0.75;;;;;;;10.08;66.48;99153.34;10520711;28;20044;-66
2023/12/24 22:07:50;;;;;;;1.13;0.85;;;;;;;10.03;66.48;99171.16;10515703;28;20074;-66
2023/12/24 22:12:52;;;;;;;1.42;0.90;;;;;;;10.20;66.12;99176.84;10510570;28;20043;-66
2023/12/24 22:17:54;;;;;;;1.00;0.75;;;;;;;10.28;65.92;99189.38;10510270;28;20047;-65
2023/12/24 22:22:56;;;;;;;5.18;0.80;;;;;;;10.15;66.37;99192.03;10522367;28;20039;-65
2023/12/24 22:27:58;;;;;;;0.68;0.65;;;;;;;10.18;66.09;99190.97;10521506;28;20051;-64
2023/12/24 22:33:04;;;;;;;1.20;0.75;;;;;;;10.17;65.77;99182.31;10521684;28;20101;-64
2023/12/24 22:38:07;;;;;;;1.60;0.95;;;;;;;10.25;65.68;99192.22;10521998;28;20504;-63
2023/12/24 22:43:09;;;;;;;1.30;0.90;;;;;;;10.34;65.54;99191.56;10535527;27;20054;-64
2023/12/24 22:48:11;;;;;;;3.53;1.10;;;;;;;10.25;65.25;99194.84;10520452;28;20152;-64
2023/12/24 22:53:13;;;;;;;4.43;0.90;;;;;;;10.30;65.37;99192.72;10519970;28;20113;-64
2023/12/24 22:58:16;;;;;;;1.88;1.10;;;;;;;10.44;65.18;99187.34;10520297;28;20098;-64
2023/12/24 23:03:18;;;;;;;1.20;0.70;;;;;;;10.21;65.39;99196.00;10519856;28;20044;-64
2023/12/24 23:08:20;;;;;;;1.67;1.00;;;;;;;10.34;65.25;99191.56;10520178;28;20040;-64
2023/12/24 23:13:22;;;;;;;1.98;0.95;;;;;;;10.40;65.01;99176.28;10519289;28;20492;-64
2023/12/24 23:18:24;;;;;;;0.93;0.57;;;;;;;10.20;65.12;99166.41;10519231;28;20419;-64
2023/12/24 23:23:27;;;;;;;1.60;0.85;;;;;;;10.37;65.09;99171.28;10519496;28;20078;-64
2023/12/24 23:28:29;;;;;;;2.17;0.80;;;;;;;10.18;65.18;99170.91;10518682;28;20514;-64
2023/12/24 23:33:31;;;;;;;2.00;0.95;;;;;;;10.28;65.36;99163.25;10519107;28;20127;-64
2023/12/24 23:38:33;;;;;;;2.85;1.25;;;;;;;10.33;65.25;99169.00;10517443;28;20559;-65
2023/12/24 23:43:35;;;;;;;1.80;0.85;;;;;;;10.19;65.43;99156.91;10518541;28;20038;-64